createdAt,value
2023-06-21T00:00:30.575Z,50.60
2023-06-21T00:01:30.582Z,48.90
2023-06-21T00:02:30.599Z,56.20
2023-06-21T00:03:30.526Z,44.60
2023-06-21T00:04:30.523Z,44.20
2023-06-21T00:05:30.514Z,45.80
2023-06-21T00:06:30.512Z,46.80
2023-06-21T00:07:30.512Z,47.90
2023-06-21T00:08:30.518Z,46.00
2023-06-21T00:09:30.507Z,44.30
2023-06-21T00:10:30.727Z,45.50
2023-06-21T00:11:30.517Z,48.10
2023-06-21T00:12:30.502Z,50.60
2023-06-21T00:13:30.500Z,52.20
2023-06-21T00:14:30.501Z,51.50
2023-06-21T00:15:30.503Z,47.80
2023-06-21T00:16:30.495Z,46.80
2023-06-21T00:17:30.512Z,47.00
2023-06-21T00:18:30.494Z,50.40
2023-06-21T00:19:30.494Z,48.70
2023-06-21T00:20:30.574Z,50.10
2023-06-21T00:21:30.497Z,47.40
2023-06-21T00:22:30.486Z,48.90
2023-06-21T00:23:30.483Z,49.70
2023-06-21T00:24:30.577Z,59.30
2023-06-21T00:25:30.484Z,53.00
2023-06-21T00:26:30.483Z,54.00
2023-06-21T00:27:30.481Z,49.50
2023-06-21T00:28:30.478Z,52.50
2023-06-21T00:29:30.484Z,50.00
2023-06-21T00:30:30.488Z,48.20
2023-06-21T00:31:30.497Z,47.70
2023-06-21T00:32:30.508Z,49.00
2023-06-21T00:33:30.480Z,52.00
2023-06-21T00:34:30.464Z,54.80
2023-06-21T00:35:30.474Z,54.90
2023-06-21T00:36:30.460Z,60.30
2023-06-21T00:37:30.468Z,59.60
2023-06-21T00:38:30.459Z,55.10
2023-06-21T00:39:30.454Z,61.80
2023-06-21T00:40:35.530Z,70.90
2023-06-21T00:41:30.464Z,74.60
2023-06-21T00:42:30.457Z,70.90
2023-06-21T00:43:30.459Z,70.40
2023-06-21T00:44:30.446Z,66.90
2023-06-21T00:45:30.449Z,64.90
2023-06-21T00:46:30.464Z,61.80
2023-06-21T00:47:30.500Z,72.30
2023-06-21T00:48:30.568Z,74.50
2023-06-21T00:49:30.434Z,75.30
2023-06-21T00:50:30.437Z,76.80
2023-06-21T00:51:30.429Z,73.00
2023-06-21T00:52:30.430Z,75.30
2023-06-21T00:53:30.437Z,71.60
2023-06-21T00:54:30.428Z,64.90
2023-06-21T00:55:30.424Z,65.00
2023-06-21T00:56:30.426Z,64.60
2023-06-21T00:57:30.423Z,68.40
2023-06-21T00:58:30.420Z,70.30
2023-06-21T00:59:30.415Z,52.00
2023-06-21T01:00:30.531Z,55.40
2023-06-21T01:01:30.432Z,53.80
2023-06-21T01:02:30.486Z,49.70
2023-06-21T01:03:30.409Z,47.20
2023-06-21T01:04:30.410Z,46.90
2023-06-21T01:05:30.486Z,50.00
2023-06-21T01:06:30.407Z,50.10
2023-06-21T01:07:30.418Z,52.40
2023-06-21T01:08:30.400Z,50.50
2023-06-21T01:09:30.400Z,52.20
2023-06-21T01:10:30.399Z,51.90
2023-06-21T01:11:30.393Z,55.20
2023-06-21T01:12:30.485Z,56.90
2023-06-21T01:13:30.563Z,55.80
2023-06-21T01:14:30.388Z,58.60
2023-06-21T01:15:30.388Z,53.10
2023-06-21T01:16:30.385Z,51.60
2023-06-21T01:17:30.401Z,53.00
2023-06-21T01:18:30.389Z,48.70
2023-06-21T01:19:30.381Z,50.90
2023-06-21T01:20:30.756Z,50.30
2023-06-21T01:21:30.378Z,48.00
2023-06-21T01:22:30.397Z,49.00
2023-06-21T01:23:30.371Z,47.60
2023-06-21T01:24:30.432Z,48.00
2023-06-21T01:25:30.389Z,46.10
2023-06-21T01:26:30.368Z,45.20
2023-06-21T01:27:30.371Z,45.30
2023-06-21T01:28:30.378Z,44.50
2023-06-21T01:29:30.375Z,46.90
2023-06-21T01:30:30.448Z,52.70
2023-06-21T01:31:30.400Z,56.80
2023-06-21T01:32:30.396Z,61.70
2023-06-21T01:33:30.359Z,62.90
2023-06-21T01:34:30.358Z,63.40
2023-06-21T01:35:30.356Z,61.90
2023-06-21T01:36:30.351Z,49.00
2023-06-21T01:37:30.352Z,47.10
2023-06-21T01:38:30.366Z,45.80
2023-06-21T01:39:30.411Z,45.90
2023-06-21T01:40:30.479Z,45.40
2023-06-21T01:41:30.814Z,45.70
2023-06-21T01:42:30.341Z,46.40
2023-06-21T01:43:30.347Z,47.20
2023-06-21T01:44:30.335Z,46.00
2023-06-21T01:45:30.338Z,44.10
2023-06-21T01:46:30.372Z,43.80
2023-06-21T01:47:30.348Z,42.90
2023-06-21T01:48:30.330Z,41.80
2023-06-21T01:49:30.326Z,41.80
2023-06-21T01:50:30.367Z,42.70
2023-06-21T01:51:30.324Z,44.10
2023-06-21T01:52:30.325Z,45.00
2023-06-21T01:53:30.320Z,43.20
2023-06-21T01:54:30.324Z,44.90
2023-06-21T01:55:30.317Z,44.20
2023-06-21T01:56:30.316Z,45.20
2023-06-21T01:57:30.316Z,42.60
2023-06-21T01:58:30.310Z,42.30
2023-06-21T01:59:30.308Z,41.90
2023-06-21T02:00:30.342Z,43.90
2023-06-21T02:01:30.312Z,42.70
2023-06-21T02:02:30.318Z,43.10
2023-06-21T02:03:30.304Z,47.10
2023-06-21T02:04:30.300Z,50.90
2023-06-21T02:05:30.457Z,55.20
2023-06-21T02:06:30.298Z,58.00
2023-06-21T02:07:30.291Z,56.70
2023-06-21T02:08:30.297Z,58.50
2023-06-21T02:09:30.291Z,59.90
2023-06-21T02:10:30.480Z,60.30
2023-06-21T02:11:30.294Z,58.10
2023-06-21T02:12:30.288Z,59.40
2023-06-21T02:13:30.287Z,56.70
2023-06-21T02:14:30.286Z,55.00
2023-06-21T02:15:30.289Z,53.90
2023-06-21T02:16:30.305Z,50.90
2023-06-21T02:17:30.293Z,55.20
2023-06-21T02:18:30.300Z,55.30
2023-06-21T02:19:30.274Z,54.90
2023-06-21T02:20:30.538Z,53.20
2023-06-21T02:21:30.282Z,49.50
2023-06-21T02:22:30.273Z,49.30
2023-06-21T02:23:30.269Z,45.10
2023-06-21T02:24:30.331Z,45.30
2023-06-21T02:25:30.266Z,45.90
2023-06-21T02:26:30.264Z,46.20
2023-06-21T02:27:30.261Z,45.00
2023-06-21T02:28:30.262Z,46.10
2023-06-21T02:29:30.263Z,46.00
2023-06-21T02:30:30.549Z,50.90
2023-06-21T02:31:30.258Z,55.30
2023-06-21T02:32:30.303Z,55.30
2023-06-21T02:33:30.297Z,51.30
2023-06-21T02:34:30.251Z,48.40
2023-06-21T02:35:30.253Z,47.50
2023-06-21T02:36:30.253Z,47.60
2023-06-21T02:37:30.264Z,46.90
2023-06-21T02:38:30.248Z,46.10
2023-06-21T02:39:30.244Z,43.50
2023-06-21T02:40:30.436Z,42.20
2023-06-21T02:41:30.247Z,41.30
2023-06-21T02:42:30.263Z,42.40
2023-06-21T02:43:30.235Z,47.00
2023-06-21T02:44:30.233Z,50.50
2023-06-21T02:45:30.251Z,53.70
2023-06-21T02:46:30.255Z,50.30
2023-06-21T02:47:30.259Z,50.00
2023-06-21T02:48:30.232Z,49.10
2023-06-21T02:49:30.225Z,52.70
2023-06-21T02:50:30.402Z,49.50
2023-06-21T02:51:30.220Z,54.40
2023-06-21T02:52:30.230Z,56.90
2023-06-21T02:53:30.219Z,55.90
2023-06-21T02:54:30.220Z,56.10
2023-06-21T02:55:30.217Z,58.80
2023-06-21T02:56:30.217Z,60.90
2023-06-21T02:57:30.214Z,67.20
2023-06-21T02:58:30.216Z,68.30
2023-06-21T02:59:30.206Z,72.70
2023-06-21T03:00:30.572Z,69.00
2023-06-21T03:01:30.242Z,76.00
2023-06-21T03:02:30.259Z,72.60
2023-06-21T03:03:30.438Z,77.50
2023-06-21T03:04:30.198Z,78.60
2023-06-21T03:05:30.215Z,81.10
2023-06-21T03:06:30.197Z,84.20
2023-06-21T03:07:30.194Z,83.20
2023-06-21T03:08:30.197Z,76.10
2023-06-21T03:09:30.189Z,68.10
2023-06-21T03:10:30.357Z,65.70
2023-06-21T03:11:30.189Z,60.90
2023-06-21T03:12:30.188Z,61.40
2023-06-21T03:13:30.190Z,63.50
2023-06-21T03:14:30.186Z,67.40
2023-06-21T03:15:30.187Z,78.80
2023-06-21T03:16:30.180Z,87.70
2023-06-21T03:17:30.196Z,92.20
2023-06-21T03:18:30.178Z,101.80
2023-06-21T03:19:30.179Z,110.30
2023-06-21T03:20:30.364Z,116.10
2023-06-21T03:21:30.177Z,119.90
2023-06-21T03:22:30.171Z,103.70
2023-06-21T03:23:30.166Z,97.00
2023-06-21T03:24:30.196Z,81.90
2023-06-21T03:25:30.182Z,83.30
2023-06-21T03:26:30.163Z,80.90
2023-06-21T03:27:30.159Z,82.60
2023-06-21T03:28:30.156Z,79.90
2023-06-21T03:29:30.158Z,74.70
2023-06-21T03:30:30.410Z,70.30
2023-06-21T03:31:30.274Z,73.20
2023-06-21T03:32:30.232Z,72.90
2023-06-21T03:33:30.148Z,72.10
2023-06-21T03:34:30.170Z,75.60
2023-06-21T03:35:30.154Z,81.70
2023-06-21T03:36:30.141Z,84.20
2023-06-21T03:37:30.145Z,86.60
2023-06-21T03:38:30.197Z,78.80
2023-06-21T03:39:30.136Z,75.60
2023-06-21T03:40:30.462Z,80.20
2023-06-21T03:41:30.154Z,88.70
2023-06-21T03:42:30.130Z,86.10
2023-06-21T03:43:30.126Z,77.50
2023-06-21T03:44:30.129Z,83.40
2023-06-21T03:45:30.126Z,79.60
2023-06-21T03:46:30.151Z,66.90
2023-06-21T03:47:30.159Z,65.90
2023-06-21T03:48:30.119Z,62.30
2023-06-21T03:49:30.121Z,59.60
2023-06-21T03:50:30.259Z,59.60
2023-06-21T03:51:30.113Z,59.70
2023-06-21T03:52:30.117Z,59.60
2023-06-21T03:53:30.112Z,63.30
2023-06-21T03:54:30.113Z,71.70
2023-06-21T03:55:30.117Z,76.40
2023-06-21T03:56:30.113Z,79.30
2023-06-21T03:57:30.107Z,82.90
2023-06-21T03:58:30.123Z,81.90
2023-06-21T03:59:30.103Z,76.00
2023-06-21T04:00:30.230Z,75.50
2023-06-21T04:01:30.137Z,77.40
2023-06-21T04:02:30.148Z,74.60
2023-06-21T04:03:30.114Z,77.90
2023-06-21T04:04:30.099Z,77.50
2023-06-21T04:05:30.143Z,80.10
2023-06-21T04:06:30.097Z,79.60
2023-06-21T04:07:30.094Z,82.10
2023-06-21T04:08:30.111Z,75.60
2023-06-21T04:09:30.092Z,72.20
2023-06-21T04:10:30.318Z,75.00
2023-06-21T04:11:30.090Z,67.00
2023-06-21T04:12:30.086Z,67.60
2023-06-21T04:13:30.109Z,63.10
2023-06-21T04:14:30.084Z,65.10
2023-06-21T04:15:30.081Z,65.10
2023-06-21T04:16:30.080Z,64.00
2023-06-21T04:17:30.087Z,62.80
2023-06-21T04:18:30.082Z,61.30
2023-06-21T04:19:30.074Z,62.60
2023-06-21T04:20:30.301Z,64.90
2023-06-21T04:21:30.081Z,62.00
2023-06-21T04:22:30.070Z,64.10
2023-06-21T04:23:30.065Z,62.40
2023-06-21T04:24:30.158Z,58.80
2023-06-21T04:25:30.072Z,61.50
2023-06-21T04:26:30.064Z,61.00
2023-06-21T04:27:30.063Z,61.80
2023-06-21T04:28:30.067Z,59.70
2023-06-21T04:29:30.073Z,61.30
2023-06-21T04:30:30.274Z,62.10
2023-06-21T04:31:30.087Z,60.90
2023-06-21T04:32:30.060Z,60.60
2023-06-21T04:33:30.047Z,63.30
2023-06-21T04:34:30.059Z,62.30
2023-06-21T04:35:30.083Z,62.80
2023-06-21T04:36:30.043Z,60.90
2023-06-21T04:37:30.104Z,60.60
2023-06-21T04:38:30.054Z,57.70
2023-06-21T04:39:30.037Z,57.50
2023-06-21T04:40:30.050Z,56.00
2023-06-21T04:41:30.034Z,54.60
2023-06-21T04:42:30.031Z,56.60
2023-06-21T04:43:30.041Z,53.90
2023-06-21T04:44:30.044Z,54.50
2023-06-21T04:45:30.073Z,58.30
2023-06-21T04:46:30.043Z,52.90
2023-06-21T04:47:30.051Z,51.80
2023-06-21T04:48:30.024Z,49.00
2023-06-21T04:49:30.038Z,50.70
2023-06-21T04:50:30.050Z,53.70
2023-06-21T04:51:30.020Z,52.20
2023-06-21T04:52:30.030Z,52.90
2023-06-21T04:53:30.140Z,52.60
2023-06-21T04:54:30.014Z,50.00
2023-06-21T04:55:30.291Z,49.10
2023-06-21T04:56:30.016Z,50.70
2023-06-21T04:57:30.007Z,51.90
2023-06-21T04:58:30.006Z,51.60
2023-06-21T04:59:30.005Z,46.40
2023-06-21T05:00:30.262Z,41.10
2023-06-21T05:01:30.005Z,41.50
2023-06-21T05:02:30.068Z,41.90
2023-06-21T05:03:30.065Z,43.20
2023-06-21T05:04:29.998Z,43.80
2023-06-21T05:05:31.481Z,43.80
2023-06-21T05:06:30.009Z,44.00
2023-06-21T05:07:29.995Z,42.30
2023-06-21T05:08:29.997Z,40.60
2023-06-21T05:09:29.988Z,39.40
2023-06-21T05:10:32.100Z,37.60
2023-06-21T05:11:29.990Z,37.80
2023-06-21T05:12:29.995Z,37.80
2023-06-21T05:13:29.990Z,39.90
2023-06-21T05:14:30.001Z,41.20
2023-06-21T05:15:29.991Z,38.80
2023-06-21T05:16:30.013Z,37.80
2023-06-21T05:17:30.002Z,38.70
2023-06-21T05:18:29.991Z,39.00
2023-06-21T05:19:29.997Z,40.30
2023-06-21T05:20:30.295Z,40.50
2023-06-21T05:21:29.984Z,37.80
2023-06-21T05:22:29.986Z,34.70
2023-06-21T05:23:29.984Z,35.10
2023-06-21T05:24:29.989Z,34.40
2023-06-21T05:25:29.985Z,34.00
2023-06-21T05:26:29.983Z,32.20
2023-06-21T05:27:29.985Z,32.00
2023-06-21T05:28:29.985Z,34.80
2023-06-21T05:29:29.985Z,35.50
2023-06-21T05:30:30.332Z,37.80
2023-06-21T05:31:30.010Z,37.40
2023-06-21T05:32:30.039Z,36.60
2023-06-21T05:33:29.993Z,37.30
2023-06-21T05:34:30.003Z,34.10
2023-06-21T05:35:29.981Z,33.40
2023-06-21T05:36:29.983Z,34.20
2023-06-21T05:37:29.988Z,34.00
2023-06-21T05:38:29.982Z,35.70
2023-06-21T05:39:29.981Z,37.60
2023-06-21T05:40:30.411Z,36.60
2023-06-21T05:41:29.983Z,38.00
2023-06-21T05:42:30.000Z,39.60
2023-06-21T05:43:29.982Z,39.20
2023-06-21T05:44:29.982Z,36.20
2023-06-21T05:45:29.986Z,37.10
2023-06-21T05:46:30.010Z,38.50
2023-06-21T05:47:30.049Z,35.50
2023-06-21T05:48:29.981Z,35.90
2023-06-21T05:49:29.985Z,35.10
2023-06-21T05:50:30.073Z,33.50
2023-06-21T05:51:29.989Z,34.30
2023-06-21T05:52:29.985Z,33.10
2023-06-21T05:53:29.990Z,33.50
2023-06-21T05:54:29.996Z,33.10
2023-06-21T05:55:30.003Z,33.50
2023-06-21T05:56:29.986Z,33.40
2023-06-21T05:57:29.999Z,31.50
2023-06-21T05:58:29.989Z,31.40
2023-06-21T05:59:29.994Z,31.80
2023-06-21T06:00:30.139Z,31.70
2023-06-21T06:01:30.054Z,30.20
2023-06-21T06:02:30.064Z,29.80
2023-06-21T06:03:30.056Z,30.90
2023-06-21T06:04:29.996Z,31.20
2023-06-21T06:05:30.003Z,31.70
2023-06-21T06:06:30.019Z,32.20
2023-06-21T06:07:30.009Z,33.60
2023-06-21T06:08:30.008Z,34.00
2023-06-21T06:09:30.010Z,33.00
2023-06-21T06:10:30.275Z,32.20
2023-06-21T06:11:30.028Z,33.10
2023-06-21T06:12:30.023Z,32.60
2023-06-21T06:13:30.010Z,32.20
2023-06-21T06:14:30.038Z,32.10
2023-06-21T06:15:30.016Z,34.20
2023-06-21T06:16:30.063Z,33.70
2023-06-21T06:17:30.063Z,32.30
2023-06-21T06:18:30.038Z,32.70
2023-06-21T06:19:30.037Z,29.90
2023-06-21T06:20:30.300Z,32.60
2023-06-21T06:21:30.035Z,31.90
2023-06-21T06:22:30.026Z,30.80
2023-06-21T06:23:30.025Z,30.00
2023-06-21T06:24:30.032Z,29.00
2023-06-21T06:25:30.031Z,28.10
2023-06-21T06:26:30.034Z,28.70
2023-06-21T06:27:30.037Z,27.60
2023-06-21T06:28:30.033Z,25.50
2023-06-21T06:29:30.041Z,26.10
2023-06-21T06:30:30.277Z,26.40
2023-06-21T06:31:30.081Z,26.80
2023-06-21T06:32:30.088Z,26.90
2023-06-21T06:33:30.046Z,27.00
2023-06-21T06:34:30.060Z,26.50
2023-06-21T06:35:30.080Z,26.20
2023-06-21T06:36:30.057Z,27.20
2023-06-21T06:37:32.437Z,25.60
2023-06-21T06:38:30.074Z,26.30
2023-06-21T06:39:30.062Z,25.20
2023-06-21T06:40:30.279Z,26.40
2023-06-21T06:41:30.083Z,26.40
2023-06-21T06:42:30.068Z,26.10
2023-06-21T06:43:30.077Z,25.50
2023-06-21T06:44:30.069Z,25.30
2023-06-21T06:45:30.072Z,25.40
2023-06-21T06:46:30.075Z,25.40
2023-06-21T06:47:30.086Z,25.00
2023-06-21T06:48:30.163Z,26.10
2023-06-21T06:49:30.084Z,24.90
2023-06-21T06:50:30.303Z,24.50
2023-06-21T06:51:30.091Z,24.60
2023-06-21T06:52:30.122Z,24.40
2023-06-21T06:53:30.099Z,24.60
2023-06-21T06:54:30.106Z,24.00
2023-06-21T06:55:30.102Z,23.90
2023-06-21T06:56:30.113Z,23.90
2023-06-21T06:57:35.694Z,24.00
2023-06-21T06:58:30.109Z,23.70
2023-06-21T06:59:30.620Z,23.20
2023-06-21T07:00:30.460Z,21.90
2023-06-21T07:01:30.125Z,20.50
2023-06-21T07:02:30.179Z,21.30
2023-06-21T07:03:30.268Z,21.10
2023-06-21T07:04:30.373Z,20.60
2023-06-21T07:05:30.347Z,20.00
2023-06-21T07:06:30.140Z,20.80
2023-06-21T07:07:30.149Z,20.50
2023-06-21T07:08:30.150Z,21.00
2023-06-21T07:09:30.153Z,22.40
2023-06-21T07:10:30.386Z,20.50
2023-06-21T07:11:30.166Z,21.10
2023-06-21T07:12:30.173Z,20.00
2023-06-21T07:13:30.176Z,19.00
2023-06-21T07:14:30.175Z,18.80
2023-06-21T07:15:30.207Z,19.10
2023-06-21T07:16:30.181Z,19.30
2023-06-21T07:17:30.233Z,20.50
2023-06-21T07:18:30.197Z,21.00
2023-06-21T07:19:30.198Z,19.90
2023-06-21T07:20:30.506Z,19.60
2023-06-21T07:21:30.309Z,19.40
2023-06-21T07:22:30.212Z,17.80
2023-06-21T07:23:30.244Z,20.30
2023-06-21T07:24:30.221Z,20.50
2023-06-21T07:25:30.224Z,20.00
2023-06-21T07:26:30.231Z,19.40
2023-06-21T07:27:30.308Z,18.20
2023-06-21T07:28:30.241Z,18.80
2023-06-21T07:29:30.246Z,18.10
2023-06-21T07:30:30.737Z,18.00
2023-06-21T07:31:30.332Z,16.90
2023-06-21T07:32:31.926Z,16.00
2023-06-21T07:33:30.302Z,14.50
2023-06-21T07:34:30.281Z,16.20
2023-06-21T07:35:30.428Z,14.80
2023-06-21T07:36:30.297Z,14.30
2023-06-21T07:37:30.307Z,14.80
2023-06-21T07:38:30.294Z,14.50
2023-06-21T07:39:41.353Z,16.80
2023-06-21T07:40:30.516Z,15.40
2023-06-21T07:41:30.314Z,16.30
2023-06-21T07:42:30.321Z,15.90
2023-06-21T07:43:30.324Z,15.90
2023-06-21T07:44:30.330Z,13.60
2023-06-21T07:45:30.570Z,15.90
2023-06-21T07:46:30.421Z,16.00
2023-06-21T07:47:30.365Z,15.80
2023-06-21T07:48:30.356Z,16.20
2023-06-21T07:49:30.356Z,15.30
2023-06-21T07:50:30.370Z,15.60
2023-06-21T07:51:30.410Z,14.00
2023-06-21T07:52:30.374Z,13.00
2023-06-21T07:53:32.066Z,16.00
2023-06-21T07:54:30.384Z,13.00
2023-06-21T07:55:30.605Z,15.30
2023-06-21T07:56:30.397Z,13.10
2023-06-21T07:57:30.406Z,18.50
2023-06-21T07:58:30.420Z,16.50
2023-06-21T07:59:30.416Z,15.50
2023-06-21T08:00:30.420Z,14.90
2023-06-21T08:01:30.445Z,14.60
2023-06-21T08:02:30.503Z,13.80
2023-06-21T08:03:30.494Z,14.10
2023-06-21T08:04:30.500Z,13.30
2023-06-21T08:05:30.673Z,14.30
2023-06-21T08:06:30.458Z,12.70
2023-06-21T08:07:30.465Z,14.40
2023-06-21T08:08:30.472Z,12.10
2023-06-21T08:09:30.537Z,12.70
2023-06-21T08:10:30.485Z,11.70
2023-06-21T08:11:30.492Z,13.30
2023-06-21T08:12:30.497Z,13.50
2023-06-21T08:13:30.503Z,12.30
2023-06-21T08:14:30.517Z,11.70
2023-06-21T08:15:30.668Z,13.70
2023-06-21T08:16:30.540Z,14.30
2023-06-21T08:17:30.594Z,12.60
2023-06-21T08:18:30.537Z,14.50
2023-06-21T08:19:30.545Z,15.00
2023-06-21T08:20:30.550Z,13.70
2023-06-21T08:21:30.557Z,13.50
2023-06-21T08:22:30.565Z,13.40
2023-06-21T08:23:30.575Z,13.10
2023-06-21T08:24:30.576Z,12.90
2023-06-21T08:25:31.367Z,13.10
2023-06-21T08:26:30.593Z,13.40
2023-06-21T08:27:30.600Z,13.10
2023-06-21T08:28:30.604Z,12.70
2023-06-21T08:29:30.614Z,12.50
2023-06-21T08:30:30.628Z,12.50
2023-06-21T08:31:30.690Z,12.40
2023-06-21T08:32:30.671Z,12.50
2023-06-21T08:33:30.637Z,12.00
2023-06-21T08:34:30.655Z,12.00
2023-06-21T08:35:30.810Z,11.10
2023-06-21T08:36:30.675Z,11.70
2023-06-21T08:37:30.670Z,10.50
2023-06-21T08:38:30.679Z,12.80
2023-06-21T08:39:32.221Z,12.40
2023-06-21T08:40:30.692Z,12.20
2023-06-21T08:41:30.698Z,10.40
2023-06-21T08:42:30.749Z,12.70
2023-06-21T08:43:30.709Z,12.10
2023-06-21T08:44:30.724Z,11.50
2023-06-21T08:45:30.983Z,12.10
2023-06-21T08:46:30.774Z,12.00
2023-06-21T08:47:30.729Z,12.20
2023-06-21T08:48:30.745Z,10.60
2023-06-21T08:49:30.758Z,10.20
2023-06-21T08:50:30.749Z,10.50
2023-06-21T08:51:30.754Z,9.90
2023-06-21T08:52:30.756Z,9.50
2023-06-21T08:53:30.766Z,10.50
2023-06-21T08:54:30.770Z,10.50
2023-06-21T08:55:30.816Z,9.70
2023-06-21T08:56:30.776Z,9.20
2023-06-21T08:57:30.862Z,9.50
2023-06-21T08:58:30.784Z,9.30
2023-06-21T08:59:30.792Z,9.50
2023-06-21T09:00:30.967Z,9.30
2023-06-21T09:01:30.861Z,9.60
2023-06-21T09:02:30.956Z,9.60
2023-06-21T09:03:30.883Z,8.90
2023-06-21T09:04:31.068Z,8.80
2023-06-21T09:05:30.813Z,9.00
2023-06-21T09:06:30.811Z,9.30
2023-06-21T09:07:30.875Z,9.50
2023-06-21T09:08:30.893Z,9.10
2023-06-21T09:09:30.828Z,8.90
2023-06-21T09:10:31.024Z,8.70
2023-06-21T09:11:30.836Z,8.90
2023-06-21T09:12:30.838Z,9.00
2023-06-21T09:13:30.940Z,8.70
2023-06-21T09:14:30.854Z,8.90
2023-06-21T09:15:31.037Z,9.00
2023-06-21T09:16:30.852Z,9.00
2023-06-21T09:17:30.926Z,8.90
2023-06-21T09:18:30.865Z,9.10
2023-06-21T09:19:30.865Z,8.60
2023-06-21T09:20:31.176Z,8.30
2023-06-21T09:21:30.873Z,8.50
2023-06-21T09:22:30.953Z,8.70
2023-06-21T09:23:30.878Z,8.50
2023-06-21T09:24:30.880Z,8.90
2023-06-21T09:25:30.890Z,8.50
2023-06-21T09:26:30.889Z,8.60
2023-06-21T09:27:30.933Z,8.60
2023-06-21T09:28:30.900Z,8.70
2023-06-21T09:29:30.934Z,8.70
2023-06-21T09:30:38.044Z,9.20
2023-06-21T09:31:30.904Z,8.90
2023-06-21T09:32:30.999Z,9.20
2023-06-21T09:33:31.005Z,8.50
2023-06-21T09:34:30.925Z,9.00
2023-06-21T09:35:30.915Z,9.10
2023-06-21T09:36:30.957Z,8.80
2023-06-21T09:37:30.922Z,8.80
2023-06-21T09:38:30.926Z,8.70
2023-06-21T09:39:30.930Z,8.60
2023-06-21T09:40:30.933Z,8.40
2023-06-21T09:41:30.938Z,8.40
2023-06-21T09:42:30.937Z,8.30
2023-06-21T09:43:30.942Z,8.00
2023-06-21T09:44:30.944Z,8.00
2023-06-21T09:45:30.949Z,8.30
2023-06-21T09:46:30.957Z,8.00
2023-06-21T09:47:31.050Z,8.00
2023-06-21T09:48:31.039Z,7.90
2023-06-21T09:49:30.963Z,7.70
2023-06-21T09:50:30.998Z,7.70
2023-06-21T09:51:31.004Z,7.70
2023-06-21T09:52:30.972Z,7.60
2023-06-21T09:53:30.976Z,7.40
2023-06-21T09:54:30.979Z,7.50
2023-06-21T09:55:30.981Z,7.70
2023-06-21T09:56:30.997Z,7.60
2023-06-21T09:57:31.004Z,7.50
2023-06-21T09:58:31.010Z,7.70
2023-06-21T09:59:30.994Z,7.10
2023-06-21T10:00:31.180Z,7.10
2023-06-21T10:01:31.224Z,6.80
2023-06-21T10:02:31.054Z,7.00
2023-06-21T10:03:31.067Z,7.20
2023-06-21T10:04:31.008Z,6.90
2023-06-21T10:05:31.016Z,7.00
2023-06-21T10:06:31.023Z,7.00
2023-06-21T10:07:31.029Z,6.70
2023-06-21T10:08:31.032Z,6.70
2023-06-21T10:09:31.032Z,6.60
2023-06-21T10:10:31.237Z,6.30
2023-06-21T10:11:31.031Z,6.10
2023-06-21T10:12:31.049Z,6.20
2023-06-21T10:13:31.051Z,6.10
2023-06-21T10:14:31.045Z,6.20
2023-06-21T10:15:31.045Z,6.30
2023-06-21T10:16:31.044Z,6.50
2023-06-21T10:17:31.086Z,6.60
2023-06-21T10:18:31.070Z,6.50
2023-06-21T10:19:31.056Z,6.50
2023-06-21T10:20:31.386Z,7.10
2023-06-21T10:21:31.067Z,7.00
2023-06-21T10:22:31.065Z,6.80
2023-06-21T10:23:31.072Z,7.20
2023-06-21T10:24:31.071Z,7.30
2023-06-21T10:25:31.076Z,7.00
2023-06-21T10:26:31.077Z,7.10
2023-06-21T10:27:31.081Z,7.00
2023-06-21T10:28:31.081Z,6.90
2023-06-21T10:29:31.085Z,6.80
2023-06-21T10:30:31.333Z,6.90
2023-06-21T10:31:31.146Z,6.90
2023-06-21T10:32:31.124Z,6.70
2023-06-21T10:33:31.425Z,6.80
2023-06-21T10:34:31.101Z,6.50
2023-06-21T10:35:31.125Z,6.70
2023-06-21T10:36:31.108Z,6.50
2023-06-21T10:37:31.125Z,6.70
2023-06-21T10:38:31.125Z,6.60
2023-06-21T10:39:31.116Z,6.40
2023-06-21T10:40:31.424Z,6.30
2023-06-21T10:41:31.123Z,6.30
2023-06-21T10:42:31.128Z,6.40
2023-06-21T10:43:31.129Z,6.30
2023-06-21T10:44:31.134Z,6.30
2023-06-21T10:45:31.137Z,6.50
2023-06-21T10:46:31.276Z,6.60
2023-06-21T10:47:31.189Z,6.40
2023-06-21T10:48:31.144Z,6.40
2023-06-21T10:49:31.149Z,6.20
2023-06-21T10:50:31.600Z,6.50
2023-06-21T10:51:31.159Z,6.50
2023-06-21T10:52:31.166Z,6.60
2023-06-21T10:53:31.168Z,6.80
2023-06-21T10:54:31.164Z,7.10
2023-06-21T10:55:31.173Z,6.70
2023-06-21T10:56:31.173Z,6.50
2023-06-21T10:57:31.176Z,6.40
2023-06-21T10:58:31.187Z,6.80
2023-06-21T10:59:31.179Z,6.60
2023-06-21T11:00:31.481Z,6.60
2023-06-21T11:01:31.255Z,6.40
2023-06-21T11:02:31.236Z,6.40
2023-06-21T11:03:31.214Z,6.20
2023-06-21T11:04:36.305Z,6.00
2023-06-21T11:05:31.201Z,6.50
2023-06-21T11:06:36.771Z,5.80
2023-06-21T11:07:31.210Z,6.00
2023-06-21T11:08:31.222Z,6.20
2023-06-21T11:09:31.229Z,6.10
2023-06-21T11:10:31.452Z,5.80
2023-06-21T11:11:31.214Z,6.00
2023-06-21T11:12:31.218Z,5.90
2023-06-21T11:13:31.226Z,6.00
2023-06-21T11:14:31.228Z,6.00
2023-06-21T11:15:31.229Z,5.90
2023-06-21T11:16:31.233Z,5.80
2023-06-21T11:17:31.291Z,6.00
2023-06-21T11:18:31.239Z,5.60
2023-06-21T11:19:31.241Z,5.60
2023-06-21T11:20:31.595Z,5.40
2023-06-21T11:21:31.249Z,5.70
2023-06-21T11:22:31.250Z,5.70
2023-06-21T11:23:31.255Z,6.10
2023-06-21T11:24:31.257Z,5.90
2023-06-21T11:25:31.268Z,6.20
2023-06-21T11:26:31.265Z,5.70
2023-06-21T11:27:31.265Z,6.00
2023-06-21T11:28:31.272Z,5.60
2023-06-21T11:29:31.277Z,5.50
2023-06-21T11:30:31.278Z,5.90
2023-06-21T11:31:31.299Z,5.50
2023-06-21T11:32:31.425Z,5.70
2023-06-21T11:33:31.314Z,5.80
2023-06-21T11:34:31.302Z,5.80
2023-06-21T11:35:31.292Z,5.50
2023-06-21T11:36:31.302Z,5.50
2023-06-21T11:37:31.300Z,5.10
2023-06-21T11:38:31.311Z,5.20
2023-06-21T11:39:31.308Z,5.00
2023-06-21T11:40:31.534Z,4.90
2023-06-21T11:41:31.315Z,5.10
2023-06-21T11:42:31.316Z,5.00
2023-06-21T11:43:31.319Z,5.10
2023-06-21T11:44:31.326Z,5.00
2023-06-21T11:45:31.334Z,5.10
2023-06-21T11:46:31.331Z,4.90
2023-06-21T11:47:31.363Z,5.20
2023-06-21T11:48:31.362Z,4.90
2023-06-21T11:49:31.336Z,4.90
2023-06-21T11:50:31.601Z,4.70
2023-06-21T11:51:32.834Z,5.00
2023-06-21T11:52:31.348Z,4.60
2023-06-21T11:53:31.355Z,4.80
2023-06-21T11:54:31.353Z,4.90
2023-06-21T11:55:31.357Z,4.90
2023-06-21T11:56:31.376Z,5.00
2023-06-21T11:57:31.363Z,5.20
2023-06-21T11:58:31.368Z,5.00
2023-06-21T11:59:31.365Z,5.00
2023-06-21T12:00:31.504Z,5.00
2023-06-21T12:01:31.372Z,5.10
2023-06-21T12:02:31.438Z,5.10
2023-06-21T12:03:31.569Z,4.90
2023-06-21T12:04:31.460Z,5.00
2023-06-21T12:05:31.387Z,4.80
2023-06-21T12:06:31.391Z,4.80
2023-06-21T12:07:31.393Z,4.90
2023-06-21T12:08:31.403Z,5.00
2023-06-21T12:09:31.398Z,4.80
2023-06-21T12:10:31.679Z,4.90
2023-06-21T12:11:31.404Z,5.00
2023-06-21T12:12:31.406Z,5.10
2023-06-21T12:13:31.411Z,5.00
2023-06-21T12:14:31.454Z,4.80
2023-06-21T12:15:31.424Z,5.10
2023-06-21T12:16:31.465Z,4.80
2023-06-21T12:17:31.439Z,4.70
2023-06-21T12:18:31.451Z,5.00
2023-06-21T12:19:31.533Z,4.90
2023-06-21T12:20:31.469Z,5.00
2023-06-21T12:21:31.437Z,4.90
2023-06-21T12:22:31.441Z,4.70
2023-06-21T12:23:31.452Z,5.00
2023-06-21T12:24:31.454Z,4.70
2023-06-21T12:25:31.461Z,4.70
2023-06-21T12:26:31.461Z,4.80
2023-06-21T12:27:31.461Z,5.10
2023-06-21T12:28:31.490Z,4.80
2023-06-21T12:29:31.477Z,4.80
2023-06-21T12:30:31.728Z,4.70
2023-06-21T12:31:31.521Z,4.90
2023-06-21T12:32:31.505Z,4.80
2023-06-21T12:33:31.494Z,4.70
2023-06-21T12:34:31.493Z,4.90
2023-06-21T12:35:31.492Z,4.80
2023-06-21T12:36:31.494Z,4.30
2023-06-21T12:37:31.502Z,4.20
2023-06-21T12:38:31.505Z,4.30
2023-06-21T12:39:31.512Z,4.20
2023-06-21T12:40:31.515Z,4.30
2023-06-21T12:41:31.537Z,4.40
2023-06-21T12:42:31.523Z,4.30
2023-06-21T12:43:31.524Z,4.20
2023-06-21T12:44:31.528Z,4.20
2023-06-21T12:45:31.535Z,4.30
2023-06-21T12:46:31.534Z,4.10
2023-06-21T12:47:31.621Z,4.30
2023-06-21T12:48:31.539Z,4.40
2023-06-21T12:49:31.557Z,4.00
2023-06-21T12:50:31.977Z,4.20
2023-06-21T12:51:31.624Z,4.20
2023-06-21T12:52:31.609Z,4.00
2023-06-21T12:53:31.560Z,4.10
2023-06-21T12:54:31.565Z,4.30
2023-06-21T12:55:31.565Z,4.30
2023-06-21T12:56:31.583Z,4.20
2023-06-21T12:57:31.582Z,3.80
2023-06-21T12:58:31.588Z,3.80
2023-06-21T12:59:31.578Z,4.10
2023-06-21T13:00:31.671Z,4.00